createdAt,value
2023-01-25T00:02:03.913Z,18.37
2023-01-25T00:04:32.648Z,18.53
2023-01-25T00:07:01.675Z,19.03
2023-01-25T00:09:30.884Z,17.93
2023-01-25T00:11:59.443Z,14.60
2023-01-25T00:14:27.866Z,16.53
2023-01-25T00:17:00.917Z,13.53
2023-01-25T00:19:29.466Z,13.70
2023-01-25T00:21:58.689Z,16.40
2023-01-25T00:24:28.511Z,15.67
2023-01-25T00:26:56.693Z,15.37
2023-01-25T00:29:28.366Z,16.30
2023-01-25T00:32:04.947Z,16.17
2023-01-25T00:34:46.840Z,19.63
2023-01-25T00:37:22.139Z,16.43
2023-01-25T00:39:53.954Z,17.77
2023-01-25T00:42:22.373Z,16.90
2023-01-25T00:44:52.096Z,15.63
2023-01-25T00:47:23.727Z,20.63
2023-01-25T00:49:52.829Z,16.27
2023-01-25T00:52:22.104Z,15.73
2023-01-25T00:54:51.870Z,16.00
2023-01-25T00:57:20.083Z,15.37
2023-01-25T00:59:48.217Z,16.10
2023-01-25T01:02:16.870Z,15.53
2023-01-25T01:04:46.428Z,17.20
2023-01-25T01:07:16.892Z,19.30
2023-01-25T01:09:48.192Z,17.47
2023-01-25T01:12:16.399Z,16.17
2023-01-25T01:14:44.920Z,15.33
2023-01-25T01:17:15.482Z,16.73
2023-01-25T01:19:43.851Z,13.77
2023-01-25T01:22:15.031Z,14.00
2023-01-25T01:24:43.415Z,14.77
2023-01-25T01:27:11.579Z,14.67
2023-01-25T01:29:39.894Z,14.07
2023-01-25T01:32:09.019Z,16.03
2023-01-25T01:34:37.874Z,15.47
2023-01-25T01:37:06.019Z,15.47
2023-01-25T01:39:35.896Z,13.33
2023-01-25T01:42:05.913Z,15.13
2023-01-25T01:44:46.712Z,15.23
2023-01-25T01:47:20.586Z,14.27
2023-01-25T01:49:55.706Z,14.83
2023-01-25T01:52:29.881Z,14.80
2023-01-25T01:55:04.986Z,15.67
2023-01-25T01:57:39.846Z,15.63
2023-01-25T02:00:13.748Z,15.03
2023-01-25T02:02:44.955Z,15.40
2023-01-25T02:05:19.404Z,15.43
2023-01-25T02:07:51.489Z,14.53
2023-01-25T02:10:24.886Z,15.27
2023-01-25T02:12:59.387Z,15.90
2023-01-25T02:15:30.856Z,15.10
2023-01-25T02:18:01.205Z,15.83
2023-01-25T02:20:37.721Z,14.67
2023-01-25T02:23:16.937Z,15.03
2023-01-25T02:25:47.055Z,14.13
2023-01-25T02:28:19.704Z,13.40
2023-01-25T02:30:50.712Z,13.07
2023-01-25T02:33:19.305Z,13.97
2023-01-25T02:36:23.265Z,13.00
2023-01-25T02:38:57.873Z,12.83
2023-01-25T02:41:35.425Z,13.87
2023-01-25T02:44:06.156Z,13.53
2023-01-25T02:46:37.754Z,14.83
2023-01-25T02:49:07.936Z,14.33
2023-01-25T02:51:39.912Z,16.43
2023-01-25T02:54:12.916Z,15.30
2023-01-25T02:56:43.290Z,15.73
2023-01-25T02:59:13.490Z,13.93
2023-01-25T03:01:49.921Z,15.53
2023-01-25T03:04:21.371Z,16.47
2023-01-25T03:06:50.546Z,17.00
2023-01-25T03:09:21.886Z,15.53
2023-01-25T03:11:53.731Z,16.03
2023-01-25T03:14:24.265Z,16.93
2023-01-25T03:16:55.110Z,15.93
2023-01-25T03:19:25.902Z,14.70
2023-01-25T03:21:54.117Z,15.37
2023-01-25T03:24:22.913Z,14.87
2023-01-25T03:27:14.572Z,19.33
2023-01-25T03:30:03.651Z,15.17
2023-01-25T03:32:34.763Z,15.27
2023-01-25T03:35:10.264Z,15.50
2023-01-25T03:37:38.731Z,15.03
2023-01-25T03:40:08.513Z,15.57
2023-01-25T03:42:48.894Z,15.87
2023-01-25T03:45:20.025Z,14.50
2023-01-25T03:47:51.879Z,15.17
2023-01-25T03:50:20.859Z,15.83
2023-01-25T03:52:54.732Z,16.37
2023-01-25T03:55:24.952Z,18.20
2023-01-25T03:57:54.929Z,19.33
2023-01-25T04:00:23.366Z,19.27
2023-01-25T04:03:02.299Z,19.93
2023-01-25T04:05:31.763Z,23.13
2023-01-25T04:08:00.598Z,21.03
2023-01-25T04:10:38.013Z,21.90
2023-01-25T04:13:08.945Z,21.70
2023-01-25T04:15:39.205Z,23.00
2023-01-25T04:18:15.919Z,22.97
2023-01-25T04:20:52.895Z,25.63
2023-01-25T04:23:23.128Z,24.17
2023-01-25T04:25:55.955Z,24.23
2023-01-25T04:28:26.471Z,25.03
2023-01-25T04:30:57.933Z,27.00
2023-01-25T04:33:30.738Z,26.77
2023-01-25T04:35:59.923Z,28.87
2023-01-25T04:38:30.751Z,29.03
2023-01-25T04:40:59.936Z,28.60
2023-01-25T04:43:32.762Z,30.77
2023-01-25T04:46:07.228Z,29.47
2023-01-25T04:48:39.605Z,34.70
2023-01-25T04:51:09.589Z,29.63
2023-01-25T04:53:39.823Z,31.80
2023-01-25T04:56:08.990Z,30.07
2023-01-25T04:58:47.758Z,35.67
2023-01-25T05:01:16.996Z,28.00
2023-01-25T05:03:45.273Z,31.00
2023-01-25T05:06:26.839Z,34.00
2023-01-25T05:08:59.066Z,33.67
2023-01-25T05:11:29.930Z,31.10
2023-01-25T05:14:12.995Z,33.43
2023-01-25T05:16:43.388Z,33.43
2023-01-25T05:19:13.543Z,35.40
2023-01-25T05:22:01.823Z,35.50
2023-01-25T05:24:41.675Z,38.03
2023-01-25T05:27:12.650Z,34.93
2023-01-25T05:30:13.603Z,34.93
2023-01-25T05:32:51.196Z,34.03
2023-01-25T05:35:19.492Z,33.00
2023-01-25T05:37:49.838Z,34.63
2023-01-25T05:40:23.385Z,37.97
2023-01-25T05:42:58.699Z,39.77
2023-01-25T05:45:31.184Z,39.20
2023-01-25T05:48:00.135Z,38.50
2023-01-25T05:50:28.949Z,38.70
2023-01-25T05:53:08.001Z,40.87
2023-01-25T05:55:37.127Z,41.27
2023-01-25T05:58:12.922Z,39.13
2023-01-25T06:00:42.772Z,37.00
2023-01-25T06:03:16.252Z,40.30
2023-01-25T06:05:46.790Z,42.73
2023-01-25T06:08:15.589Z,41.67
2023-01-25T06:10:50.663Z,41.00
2023-01-25T06:13:19.885Z,38.13
2023-01-25T06:15:54.635Z,39.70
2023-01-25T06:18:45.117Z,43.60
2023-01-25T06:21:37.017Z,39.97
2023-01-25T06:24:07.625Z,42.20
2023-01-25T06:26:35.899Z,40.00
2023-01-25T06:29:06.843Z,42.37
2023-01-25T06:31:36.930Z,38.87
2023-01-25T06:34:06.481Z,38.67
2023-01-25T06:36:35.030Z,39.00
2023-01-25T06:39:03.936Z,60.97
2023-01-25T06:41:32.116Z,41.13
2023-01-25T06:44:00.320Z,41.03
2023-01-25T06:46:30.422Z,46.00
2023-01-25T06:49:00.103Z,43.80
2023-01-25T06:51:28.418Z,44.93
2023-01-25T06:53:57.371Z,43.00
2023-01-25T06:56:26.693Z,42.77
2023-01-25T06:58:58.369Z,46.07
2023-01-25T07:01:30.308Z,41.97
2023-01-25T07:04:00.662Z,42.73
2023-01-25T07:06:34.205Z,39.73
2023-01-25T07:09:06.619Z,40.00
2023-01-25T07:11:36.331Z,41.87
2023-01-25T07:14:05.779Z,39.63
2023-01-25T07:16:42.276Z,43.60
2023-01-25T07:19:14.308Z,39.30
2023-01-25T07:21:50.084Z,40.37
2023-01-25T07:24:20.195Z,44.90
2023-01-25T07:26:50.861Z,44.63
2023-01-25T07:29:19.383Z,44.50
2023-01-25T07:31:47.845Z,44.57
2023-01-25T07:34:21.053Z,39.83
2023-01-25T07:36:49.302Z,42.90
2023-01-25T07:39:19.527Z,42.63
2023-01-25T07:41:47.834Z,43.10
2023-01-25T07:44:20.481Z,44.83
2023-01-25T07:46:52.839Z,44.97
2023-01-25T07:49:22.997Z,45.43
2023-01-25T07:51:55.345Z,41.03
2023-01-25T07:54:23.574Z,40.07
2023-01-25T07:56:55.388Z,49.10
2023-01-25T07:59:23.526Z,46.87
2023-01-25T08:01:53.497Z,41.67
2023-01-25T08:04:23.038Z,41.03
2023-01-25T08:06:51.186Z,42.17
2023-01-25T08:09:23.597Z,38.80
2023-01-25T08:11:53.568Z,42.37
2023-01-25T08:14:21.933Z,45.27
2023-01-25T08:16:52.363Z,39.93
2023-01-25T08:19:22.565Z,40.47
2023-01-25T08:21:50.848Z,40.57
2023-01-25T08:24:20.905Z,39.77
2023-01-25T08:26:49.304Z,40.90
2023-01-25T08:29:22.288Z,42.60
2023-01-25T08:31:50.539Z,44.63
2023-01-25T08:34:19.149Z,40.50
2023-01-25T08:39:27.666Z,37.77
2023-01-25T08:41:56.831Z,39.30
2023-01-25T08:44:26.075Z,36.27
2023-01-25T08:46:57.959Z,38.93
2023-01-25T08:49:27.679Z,39.43
2023-01-25T08:51:58.614Z,39.33
2023-01-25T08:54:26.858Z,39.63
2023-01-25T08:56:55.140Z,39.27
2023-01-25T08:59:25.355Z,39.20
2023-01-25T09:01:53.584Z,36.03
2023-01-25T09:04:28.319Z,37.20
2023-01-25T09:07:00.400Z,36.57
2023-01-25T09:09:31.664Z,37.77
2023-01-25T09:11:59.848Z,34.17
2023-01-25T09:14:28.009Z,38.37
2023-01-25T09:16:56.255Z,38.23
2023-01-25T09:19:24.822Z,36.37
2023-01-25T09:21:52.937Z,34.17
2023-01-25T09:24:22.620Z,39.53
2023-01-25T09:26:59.447Z,37.30
2023-01-25T09:29:30.196Z,37.03
2023-01-25T09:31:58.552Z,33.70
2023-01-25T09:34:37.472Z,37.07
2023-01-25T09:37:05.629Z,37.43
2023-01-25T09:39:37.071Z,37.20
2023-01-25T09:42:30.242Z,38.17
2023-01-25T09:45:23.633Z,38.93
2023-01-25T09:47:59.802Z,35.90
2023-01-25T09:50:37.171Z,38.13
2023-01-25T09:53:40.796Z,33.37
2023-01-25T09:56:16.941Z,35.17
2023-01-25T09:58:49.092Z,35.20
2023-01-25T10:01:37.640Z,38.40
2023-01-25T10:04:15.017Z,38.70
2023-01-25T10:06:55.194Z,38.47
2023-01-25T10:09:39.169Z,38.27
2023-01-25T10:12:17.147Z,38.40
2023-01-25T10:14:46.906Z,37.30
2023-01-25T10:17:22.002Z,38.03
2023-01-25T10:20:13.947Z,41.33
2023-01-25T10:22:47.788Z,42.97
2023-01-25T10:25:28.717Z,38.70
2023-01-25T10:28:20.485Z,40.60
2023-01-25T10:30:56.431Z,37.87
2023-01-25T10:33:25.134Z,36.23
2023-01-25T10:35:54.041Z,37.33
2023-01-25T10:38:27.962Z,36.63
2023-01-25T10:41:02.960Z,39.43
2023-01-25T10:43:35.937Z,36.13
2023-01-25T10:46:05.080Z,37.03
2023-01-25T10:48:36.609Z,43.10
2023-01-25T10:51:06.200Z,42.87
2023-01-25T10:53:35.678Z,37.57
2023-01-25T10:56:17.122Z,40.23
2023-01-25T10:58:51.162Z,40.37
2023-01-25T11:01:32.139Z,44.27
2023-01-25T11:04:01.650Z,38.33
2023-01-25T11:06:32.980Z,40.40
2023-01-25T11:09:03.541Z,38.23
2023-01-25T11:11:38.984Z,37.73
2023-01-25T11:14:18.690Z,38.00
2023-01-25T11:16:50.717Z,40.33
2023-01-25T11:19:32.521Z,42.37
2023-01-25T11:22:02.249Z,41.00
2023-01-25T11:24:31.480Z,38.50
2023-01-25T11:27:24.022Z,41.37
2023-01-25T11:30:13.080Z,35.97
2023-01-25T11:32:42.940Z,36.67
2023-01-25T11:35:17.013Z,41.00
2023-01-25T11:38:04.798Z,39.77
2023-01-25T11:40:39.463Z,40.07
2023-01-25T11:43:30.474Z,40.80
2023-01-25T11:46:20.883Z,41.77
2023-01-25T11:49:12.694Z,37.87
2023-01-25T11:51:51.513Z,40.00
2023-01-25T11:54:44.333Z,41.17
2023-01-25T11:57:30.900Z,42.63
2023-01-25T12:00:23.794Z,41.60
2023-01-25T12:03:25.386Z,40.70
2023-01-25T12:06:01.944Z,37.00
2023-01-25T12:08:46.038Z,41.53
2023-01-25T12:11:25.390Z,38.20
2023-01-25T12:14:06.105Z,39.47
2023-01-25T12:16:48.618Z,39.90
2023-01-25T12:19:40.422Z,40.50
2023-01-25T12:22:47.307Z,39.00
2023-01-25T12:25:26.024Z,36.57
2023-01-25T12:28:10.647Z,37.10
2023-01-25T12:30:50.962Z,42.17
2023-01-25T12:33:24.021Z,39.70
2023-01-25T12:35:59.075Z,35.93
2023-01-25T12:38:33.873Z,39.83
2023-01-25T12:41:08.923Z,38.47
2023-01-25T12:43:43.126Z,36.73
2023-01-25T12:46:17.491Z,39.27
2023-01-25T12:48:51.115Z,37.10
2023-01-25T12:51:22.231Z,43.40
2023-01-25T12:53:54.179Z,40.07
2023-01-25T12:56:34.070Z,38.70
2023-01-25T12:59:10.582Z,38.13
2023-01-25T13:01:49.122Z,38.60
2023-01-25T13:04:42.084Z,38.73
2023-01-25T13:07:20.383Z,38.43
2023-01-25T13:10:02.314Z,37.27
2023-01-25T13:12:31.063Z,38.53
2023-01-25T13:15:00.058Z,40.23
2023-01-25T13:17:36.695Z,43.20
2023-01-25T13:20:45.079Z,43.00
2023-01-25T13:23:32.672Z,40.33
2023-01-25T13:26:38.000Z,38.33
2023-01-25T13:29:54.661Z,37.50
2023-01-25T13:33:03.573Z,46.43
2023-01-25T13:35:38.366Z,43.40
2023-01-25T13:38:33.906Z,46.50
2023-01-25T13:41:20.114Z,41.63
2023-01-25T13:43:52.084Z,40.57
2023-01-25T13:46:26.123Z,43.07
2023-01-25T13:48:59.798Z,42.50
2023-01-25T13:51:31.467Z,38.97
2023-01-25T13:54:03.541Z,38.57
2023-01-25T13:56:36.014Z,38.17
2023-01-25T13:59:04.386Z,38.30
2023-01-25T14:01:36.785Z,40.97
2023-01-25T14:04:06.582Z,42.33
2023-01-25T14:06:38.381Z,37.13
2023-01-25T14:09:16.990Z,42.83
2023-01-25T14:11:51.583Z,43.13
2023-01-25T14:14:25.973Z,47.90
2023-01-25T14:17:13.111Z,43.67
2023-01-25T14:19:44.534Z,44.83
2023-01-25T14:22:31.258Z,43.07
2023-01-25T14:25:05.910Z,43.13
2023-01-25T14:27:35.974Z,39.80
2023-01-25T14:30:05.773Z,42.63
2023-01-25T14:32:37.909Z,41.13
2023-01-25T14:35:43.581Z,40.37
2023-01-25T14:38:28.225Z,36.83
2023-01-25T14:40:59.460Z,41.53
2023-01-25T14:43:30.143Z,36.90
2023-01-25T14:45:58.457Z,39.50
2023-01-25T14:48:40.807Z,42.43
2023-01-25T14:51:17.106Z,43.83
2023-01-25T14:53:49.285Z,42.73
2023-01-25T14:56:35.829Z,43.50
2023-01-25T14:59:06.361Z,42.87
2023-01-25T15:01:39.430Z,43.53
2023-01-25T15:04:14.871Z,43.97
2023-01-25T15:06:52.230Z,44.77
2023-01-25T15:09:35.555Z,42.77
2023-01-25T15:12:05.815Z,48.97
2023-01-25T15:14:34.329Z,49.53
2023-01-25T15:17:02.473Z,45.50
2023-01-25T15:19:35.745Z,45.40
2023-01-25T15:22:06.171Z,42.27
2023-01-25T15:24:34.581Z,42.63
2023-01-25T15:27:03.391Z,39.97
2023-01-25T15:29:35.581Z,42.00
2023-01-25T15:32:03.840Z,38.30
2023-01-25T15:34:33.536Z,38.53
2023-01-25T15:37:03.038Z,38.57
2023-01-25T15:39:32.706Z,38.90
2023-01-25T15:42:03.348Z,40.07
2023-01-25T15:44:31.632Z,39.93
2023-01-25T15:46:59.833Z,40.90
2023-01-25T15:49:31.003Z,47.07
2023-01-25T15:51:59.463Z,41.83
2023-01-25T15:54:32.793Z,43.43
2023-01-25T15:57:01.745Z,42.67
2023-01-25T15:59:30.241Z,39.87
2023-01-25T16:01:58.499Z,51.53
2023-01-25T16:04:27.118Z,46.37
2023-01-25T16:06:55.968Z,49.13
2023-01-25T16:09:26.828Z,50.10
2023-01-25T16:11:59.169Z,53.50
2023-01-25T16:14:30.201Z,49.20
2023-01-25T16:17:02.624Z,49.37
2023-01-25T16:19:31.135Z,46.93
2023-01-25T16:21:59.348Z,52.87
2023-01-25T16:24:27.693Z,57.87
2023-01-25T16:26:59.057Z,51.90
2023-01-25T16:29:30.437Z,49.53
2023-01-25T16:31:58.970Z,49.97
2023-01-25T16:34:27.314Z,49.73
2023-01-25T16:36:57.611Z,47.07
2023-01-25T16:39:28.334Z,46.43
2023-01-25T16:41:57.936Z,44.50
2023-01-25T16:44:27.141Z,44.10
2023-01-25T16:46:55.605Z,42.00
2023-01-25T16:49:26.709Z,44.90
2023-01-25T16:51:58.973Z,44.40
2023-01-25T16:54:28.762Z,47.53
2023-01-25T16:56:59.954Z,51.40
2023-01-25T16:59:30.312Z,51.70
2023-01-25T17:02:01.371Z,48.07
2023-01-25T17:04:31.126Z,47.93
2023-01-25T17:06:59.919Z,49.40
2023-01-25T17:09:29.749Z,47.47
2023-01-25T17:11:59.298Z,48.73
2023-01-25T17:14:29.863Z,49.57
2023-01-25T17:16:57.985Z,48.53
2023-01-25T17:19:27.193Z,49.17
2023-01-25T17:21:57.448Z,45.83
2023-01-25T17:24:30.381Z,45.60
2023-01-25T17:27:01.396Z,40.43
2023-01-25T17:29:31.029Z,46.00
2023-01-25T17:31:59.705Z,44.80
2023-01-25T17:34:30.469Z,71.83
2023-01-25T17:36:59.053Z,47.50
2023-01-25T17:39:28.157Z,46.23
2023-01-25T17:41:56.285Z,47.17
2023-01-25T17:44:26.695Z,49.83
2023-01-25T17:46:58.975Z,48.63
2023-01-25T17:49:29.456Z,45.70
2023-01-25T17:51:57.681Z,46.77
2023-01-25T17:54:26.155Z,48.67
2023-01-25T17:56:59.429Z,48.57
2023-01-25T17:59:29.260Z,43.37
2023-01-25T18:01:57.919Z,44.70
2023-01-25T18:04:26.385Z,44.90
2023-01-25T18:06:54.589Z,46.97
2023-01-25T18:09:23.810Z,49.37
2023-01-25T18:11:54.461Z,57.53
2023-01-25T18:14:25.762Z,48.93
2023-01-25T18:16:55.249Z,43.97
2023-01-25T18:19:24.144Z,117.97
2023-01-25T18:21:52.250Z,65.13
2023-01-25T18:24:34.085Z,46.83
2023-01-25T18:27:05.767Z,50.23
2023-01-25T18:29:45.508Z,50.77
2023-01-25T18:32:16.096Z,52.43
2023-01-25T18:34:44.628Z,55.10
2023-01-25T18:37:21.892Z,51.40
2023-01-25T18:39:51.819Z,55.60
2023-01-25T18:42:21.101Z,52.97
2023-01-25T18:44:49.365Z,53.27
2023-01-25T18:47:20.138Z,50.30
2023-01-25T18:49:49.292Z,56.10
2023-01-25T18:52:18.423Z,47.80
2023-01-25T18:54:49.818Z,47.77
2023-01-25T18:57:18.275Z,55.77
2023-01-25T18:59:46.707Z,46.40
2023-01-25T19:02:16.385Z,46.87
2023-01-25T19:04:47.185Z,49.47
2023-01-25T19:07:15.639Z,44.00
2023-01-25T19:09:44.577Z,40.13
2023-01-25T19:12:13.076Z,45.20
2023-01-25T19:14:44.338Z,55.07
2023-01-25T19:17:12.577Z,68.60
2023-01-25T19:19:45.347Z,50.63
2023-01-25T19:22:14.949Z,49.10
2023-01-25T19:24:43.227Z,51.33
2023-01-25T19:27:11.360Z,48.77
2023-01-25T19:29:40.254Z,48.63
2023-01-25T19:32:10.816Z,48.73
2023-01-25T19:34:39.138Z,50.50
2023-01-25T19:37:07.293Z,45.63
2023-01-25T19:39:37.156Z,41.83
2023-01-25T19:42:06.836Z,50.67
2023-01-25T19:44:35.070Z,55.47
2023-01-25T19:47:04.038Z,53.20
2023-01-25T19:49:32.155Z,46.50
2023-01-25T19:52:00.298Z,43.70
2023-01-25T19:54:28.641Z,47.37
2023-01-25T19:56:58.591Z,43.00
2023-01-25T19:59:29.086Z,46.00
2023-01-25T20:01:57.867Z,44.33
2023-01-25T20:04:29.866Z,49.90
2023-01-25T20:06:58.082Z,46.13
2023-01-25T20:09:28.657Z,47.10
2023-01-25T20:12:00.643Z,42.80
2023-01-25T20:14:28.904Z,48.33
2023-01-25T20:16:58.435Z,45.97
2023-01-25T20:19:26.581Z,47.73
2023-01-25T20:21:54.772Z,47.37
2023-01-25T20:24:24.530Z,52.67
2023-01-25T20:26:52.696Z,43.50
2023-01-25T20:29:25.853Z,45.97
2023-01-25T20:31:54.279Z,47.77
2023-01-25T20:34:24.215Z,45.20
2023-01-25T20:36:52.788Z,46.57
2023-01-25T20:39:22.726Z,49.03
2023-01-25T20:41:54.911Z,44.13
2023-01-25T20:44:29.881Z,45.27
2023-01-25T20:46:58.236Z,44.97
2023-01-25T20:49:31.798Z,45.33
2023-01-25T20:52:00.124Z,44.70
2023-01-25T20:54:28.338Z,45.03
2023-01-25T20:56:58.029Z,50.73
2023-01-25T20:59:31.141Z,41.70
2023-01-25T21:02:03.082Z,46.13
2023-01-25T21:04:31.394Z,45.83
2023-01-25T21:06:59.649Z,45.67
2023-01-25T21:09:28.309Z,46.13
2023-01-25T21:14:50.210Z,43.83
2023-01-25T21:17:23.060Z,43.00
2023-01-25T21:19:51.339Z,42.10
2023-01-25T21:22:20.115Z,45.20
2023-01-25T21:24:48.399Z,43.47
2023-01-25T21:27:16.753Z,47.37
2023-01-25T21:29:45.278Z,45.07
2023-01-25T21:32:14.753Z,43.70
2023-01-25T21:34:49.589Z,42.27
2023-01-25T21:37:18.315Z,45.03
2023-01-25T21:39:46.609Z,46.43
2023-01-25T21:42:14.773Z,42.83
2023-01-25T21:45:05.411Z,45.10
2023-01-25T21:47:34.919Z,43.83
2023-01-25T21:50:20.870Z,44.37
2023-01-25T21:52:49.139Z,54.30
2023-01-25T21:55:17.903Z,53.83
2023-01-25T21:57:50.117Z,49.27
2023-01-25T22:00:20.574Z,58.97
2023-01-25T22:02:53.578Z,46.73
2023-01-25T22:05:21.945Z,50.27
2023-01-25T22:07:50.091Z,48.77
2023-01-25T22:10:19.151Z,48.07
2023-01-25T22:12:50.673Z,48.97
2023-01-25T22:15:20.210Z,47.10
2023-01-25T22:17:48.430Z,53.97
2023-01-25T22:20:21.378Z,51.53
2023-01-25T22:22:50.078Z,59.20
2023-01-25T22:25:18.355Z,55.60
2023-01-25T22:27:55.066Z,56.70
2023-01-25T22:30:24.227Z,59.63
2023-01-25T22:32:56.223Z,55.13
2023-01-25T22:35:25.904Z,58.63
2023-01-25T22:37:54.066Z,53.10
2023-01-25T22:40:22.306Z,56.00
2023-01-25T22:42:50.394Z,53.80
2023-01-25T22:45:19.065Z,54.77
2023-01-25T22:47:48.099Z,55.23
2023-01-25T22:50:21.277Z,54.77
2023-01-25T22:52:50.852Z,54.00
2023-01-25T22:55:19.142Z,61.03
2023-01-25T22:57:48.057Z,58.63
2023-01-25T23:00:17.067Z,59.23
2023-01-25T23:02:49.439Z,56.67
2023-01-25T23:05:18.215Z,59.63
2023-01-25T23:07:46.345Z,61.60
2023-01-25T23:10:17.895Z,61.40
2023-01-25T23:12:46.088Z,60.20
2023-01-25T23:15:16.367Z,57.40
2023-01-25T23:18:03.071Z,55.90
2023-01-25T23:20:31.490Z,62.10
2023-01-25T23:22:59.621Z,57.90
2023-01-25T23:25:30.495Z,56.90
2023-01-25T23:28:00.291Z,55.47
2023-01-25T23:30:28.565Z,64.07
2023-01-25T23:32:56.905Z,59.43
2023-01-25T23:35:25.191Z,57.93
2023-01-25T23:37:53.364Z,58.43
2023-01-25T23:40:21.638Z,60.60
2023-01-25T23:42:52.071Z,57.97
2023-01-25T23:45:22.850Z,56.43
2023-01-25T23:47:51.001Z,54.10
2023-01-25T23:50:20.227Z,53.47
2023-01-25T23:52:48.350Z,56.17
2023-01-25T23:55:17.196Z,51.90
2023-01-25T23:57:45.273Z,53.07
